www.cux-wetter.de
Wetterdaten: Montag, 08.10.2012
Datum Zeit Temp. A. Feuchte A. Luftdruck Regen Wind Richtung Richtung Sonnenschein Solar Taupunkt Windchill Windben
08.10.2012 00:00 11,6 C 69 % 1018,5 hPa 0,0 l/m 28,7 km/h (5 Bft) N 350 0 min 0 W/m 6,1 C 3,2 C 28,7 km/h (5 Bft)
08.10.2012 00:15 11,5 C 71 % 1018,5 hPa 0,0 l/m 19,8 km/h (3 Bft) N-NW 345 0 min 0 W/m 6,4 C 5,3 C 19,8 km/h (3 Bft)
08.10.2012 00:30 11,3 C 71 % 1018,5 hPa 0,0 l/m 19,6 km/h (3 Bft) N-NW 330 0 min 0 W/m 6,2 C 5,1 C 19,6 km/h (3 Bft)
08.10.2012 00:45 11,2 C 70 % 1018,5 hPa 0,0 l/m 23,9 km/h (4 Bft) N 355 0 min 0 W/m 5,9 C 3,7 C 23,9 km/h (4 Bft)
08.10.2012 01:00 11,2 C 70 % 1018,5 hPa 0,0 l/m 22,9 km/h (4 Bft) N-NW 340 0 min 0 W/m 5,9 C 4,0 C 22,9 km/h (4 Bft)
08.10.2012 01:15 11,2 C 71 % 1018,5 hPa 0,0 l/m 22,3 km/h (4 Bft) N-NW 345 0 min 0 W/m 6,1 C 4,2 C 22,3 km/h (4 Bft)
08.10.2012 01:30 11,2 C 72 % 1018,5 hPa 0,0 l/m 21,6 km/h (4 Bft) NW 320 0 min 0 W/m 6,3 C 4,4 C 21,6 km/h (4 Bft)
08.10.2012 01:45 11,4 C 74 % 1018,5 hPa 0,0 l/m 26,7 km/h (4 Bft) N 5 0 min 0 W/m 6,9 C 3,3 C 26,7 km/h (4 Bft)
08.10.2012 02:00 11,4 C 74 % 1018,5 hPa 0,0 l/m 22,9 km/h (4 Bft) NW 315 0 min 0 W/m 6,9 C 4,3 C 22,9 km/h (4 Bft)
08.10.2012 02:15 11,4 C 74 % 1018,5 hPa 0,0 l/m 16,0 km/h (3 Bft) NW 320 0 min 0 W/m 6,9 C 6,4 C 16,0 km/h (3 Bft)
08.10.2012 02:30 11,5 C 72 % 1018,5 hPa 0,0 l/m 18,3 km/h (3 Bft) N 350 0 min 0 W/m 6,6 C 5,8 C 18,3 km/h (3 Bft)
08.10.2012 02:45 11,5 C 72 % 1018,5 hPa 0,0 l/m 16,6 km/h (3 Bft) N-NW 335 0 min 0 W/m 6,6 C 6,3 C 16,6 km/h (3 Bft)
08.10.2012 03:00 11,6 C 72 % 1018,5 hPa 0,0 l/m 26,3 km/h (4 Bft) N-NW 335 0 min 0 W/m 6,7 C 3,7 C 26,3 km/h (4 Bft)
08.10.2012 03:15 11,6 C 72 % 1018,5 hPa 0,0 l/m 20,5 km/h (4 Bft) NW 315 0 min 0 W/m 6,7 C 5,2 C 20,5 km/h (4 Bft)
08.10.2012 03:30 11,6 C 73 % 1018,5 hPa 0,0 l/m 16,7 km/h (3 Bft) NW 325 0 min 0 W/m 6,9 C 6,4 C 16,7 km/h (3 Bft)
08.10.2012 03:45 11,6 C 74 % 1018,5 hPa 0,0 l/m 20,3 km/h (4 Bft) N-NW 330 0 min 0 W/m 7,1 C 5,3 C 20,3 km/h (4 Bft)
08.10.2012 04:00 11,7 C 74 % 1018,5 hPa 0,0 l/m 19,4 km/h (3 Bft) NW 320 0 min 0 W/m 7,2 C 5,7 C 19,4 km/h (3 Bft)
08.10.2012 04:15 11,9 C 73 % 1018,5 hPa 0,0 l/m 23,6 km/h (4 Bft) N-NW 330 0 min 0 W/m 7,2 C 4,8 C 23,6 km/h (4 Bft)
08.10.2012 04:30 12,0 C 72 % 1018,5 hPa 0,0 l/m 30,4 km/h (5 Bft) N 355 0 min 0 W/m 7,1 C 3,4 C 30,4 km/h (5 Bft)
08.10.2012 04:45 12,0 C 72 % 1018,5 hPa 0,0 l/m 20,5 km/h (4 Bft) N 360 0 min 0 W/m 7,1 C 5,7 C 20,5 km/h (4 Bft)
08.10.2012 05:00 12,0 C 72 % 1018,5 hPa 0,0 l/m 27,0 km/h (5 Bft) N-NW 345 0 min 0 W/m 7,1 C 4,1 C 27,0 km/h (5 Bft)
08.10.2012 05:15 11,9 C 71 % 1018,5 hPa 0,0 l/m 17,7 km/h (3 Bft) N-NW 330 0 min 0 W/m 6,8 C 6,5 C 17,7 km/h (3 Bft)
08.10.2012 05:29 11,6 C 71 % 1018,5 hPa 0,0 l/m 16,5 km/h (3 Bft) N-NW 330 0 min 0 W/m 6,5 C 6,5 C 16,5 km/h (3 Bft)
08.10.2012 05:45 11,6 C 71 % 1017,5 hPa 0,0 l/m 16,8 km/h (3 Bft) NW 320 0 min 0 W/m 6,5 C 6,4 C 16,8 km/h (3 Bft)
08.10.2012 06:00 11,8 C 72 % 1017,5 hPa 0,0 l/m 16,0 km/h (3 Bft) N 355 0 min 0 W/m 6,9 C 6,9 C 16,0 km/h (3 Bft)
08.10.2012 06:14 11,8 C 74 % 1018,5 hPa 0,0 l/m 21,5 km/h (4 Bft) N-NW 335 0 min 0 W/m 7,3 C 5,2 C 21,5 km/h (4 Bft)
08.10.2012 06:30 11,7 C 74 % 1017,5 hPa 0,0 l/m 19,3 km/h (3 Bft) N-NW 330 0 min 0 W/m 7,2 C 5,7 C 19,3 km/h (3 Bft)
08.10.2012 06:45 11,6 C 76 % 1018,5 hPa 0,0 l/m 20,6 km/h (4 Bft) NW 320 0 min 0 W/m 7,5 C 5,2 C 20,6 km/h (4 Bft)
08.10.2012 07:00 11,4 C 77 % 1017,5 hPa 0,0 l/m 22,6 km/h (4 Bft) NW 320 0 min 0 W/m 7,5 C 4,3 C 22,6 km/h (4 Bft)
08.10.2012 07:15 11,4 C 76 % 1017,5 hPa 0,0 l/m 13,3 km/h (3 Bft) NW 305 0 min 0 W/m 7,3 C 7,5 C 13,3 km/h (3 Bft)
08.10.2012 07:30 11,5 C 75 % 1017,5 hPa 0,0 l/m 12,8 km/h (3 Bft) NW 315 0 min 0 W/m 7,2 C 7,9 C 12,8 km/h (3 Bft)
08.10.2012 07:45 11,6 C 75 % 1017,5 hPa 0,0 l/m 23,5 km/h (4 Bft) N-NW 340 0 min 0 W/m 7,3 C 4,4 C 23,5 km/h (4 Bft)
08.10.2012 08:00 11,5 C 75 % 1017,5 hPa 0,0 l/m 20,5 km/h (4 Bft) N 360 0 min 0 W/m 7,2 C 5,1 C 20,5 km/h (4 Bft)
08.10.2012 08:15 11,4 C 76 % 1017,5 hPa 0,0 l/m 15,5 km/h (3 Bft) N 5 0 min 0 W/m 7,3 C 6,6 C 15,5 km/h (3 Bft)
08.10.2012 08:30 11,4 C 77 % 1018,5 hPa 0,0 l/m 13,4 km/h (3 Bft) NW 315 0 min 0 W/m 7,5 C 7,5 C 13,4 km/h (3 Bft)
08.10.2012 08:45 11,4 C 76 % 1018,5 hPa 0,0 l/m 13,6 km/h (3 Bft) NW 310 0 min 0 W/m 7,3 C 7,4 C 13,6 km/h (3 Bft)
08.10.2012 09:00 11,6 C 77 % 1018,5 hPa 0,0 l/m 10,3 km/h (2 Bft) NW 310 0 min 0 W/m 7,7 C 9,2 C 10,3 km/h (2 Bft)
08.10.2012 09:15 11,6 C 77 % 1017,5 hPa 0,0 l/m 11,1 km/h (2 Bft) NW 320 0 min 0 W/m 7,7 C 8,8 C 11,1 km/h (2 Bft)
08.10.2012 09:30 11,6 C 77 % 1017,5 hPa 0,0 l/m 12,9 km/h (3 Bft) NW 315 0 min 0 W/m 7,7 C 7,9 C 12,9 km/h (3 Bft)
08.10.2012 09:45 12,0 C 78 % 1018,5 hPa 0,0 l/m 15,5 km/h (3 Bft) W 275 0 min 0 W/m 8,3 C 7,4 C 15,5 km/h (3 Bft)
08.10.2012 10:00 12,0 C 79 % 1018,5 hPa 0,0 l/m 18,8 km/h (3 Bft) W-NW 300 0 min 0 W/m 8,5 C 6,2 C 18,8 km/h (3 Bft)
08.10.2012 10:15 12,0 C 81 % 1018,5 hPa 0,0 l/m 16,4 km/h (3 Bft) W-NW 300 0 min 0 W/m 8,8 C 7,0 C 16,4 km/h (3 Bft)
08.10.2012 10:30 12,1 C 82 % 1017,5 hPa 0,0 l/m 15,5 km/h (3 Bft) NW 310 0 min 0 W/m 9,1 C 7,5 C 15,5 km/h (3 Bft)
08.10.2012 10:45 12,3 C 81 % 1017,5 hPa 0,0 l/m 19,6 km/h (3 Bft) W-NW 285 0 min 0 W/m 9,1 C 6,4 C 19,6 km/h (3 Bft)
08.10.2012 10:59 12,4 C 81 % 1017,5 hPa 0,0 l/m 18,0 km/h (3 Bft) W-NW 300 0 min 0 W/m 9,2 C 7,0 C 18,0 km/h (3 Bft)
08.10.2012 11:15 12,9 C 80 % 1017,5 hPa 0,0 l/m 23,7 km/h (4 Bft) W-NW 295 0 min 0 W/m 9,5 C 6,1 C 23,7 km/h (4 Bft)
08.10.2012 11:30 13,0 C 78 % 1017,5 hPa 0,0 l/m 18,1 km/h (3 Bft) NW 315 0 min 0 W/m 9,3 C 7,7 C 18,1 km/h (3 Bft)
08.10.2012 11:44 12,6 C 78 % 1017,5 hPa 0,0 l/m 19,8 km/h (3 Bft) W 265 0 min 0 W/m 8,9 C 6,7 C 19,8 km/h (3 Bft)
08.10.2012 12:00 12,7 C 80 % 1017,5 hPa 0,0 l/m 24,4 km/h (4 Bft) W 280 0 min 0 W/m 9,3 C 5,6 C 24,4 km/h (4 Bft)
08.10.2012 12:14 13,3 C 79 % 1017,5 hPa 0,0 l/m 20,3 km/h (4 Bft) W 270 0 min 0 W/m 9,7 C 7,5 C 20,3 km/h (4 Bft)
08.10.2012 12:30 13,7 C 73 % 1017,5 hPa 0,0 l/m 23,4 km/h (4 Bft) NW 305 0 min 0 W/m 8,9 C 7,2 C 23,4 km/h (4 Bft)
08.10.2012 12:45 13,6 C 70 % 1017,5 hPa 0,0 l/m 25,5 km/h (4 Bft) W-NW 300 0 min 0 W/m 8,2 C 6,6 C 25,5 km/h (4 Bft)
08.10.2012 13:00 14,0 C 68 % 1017,5 hPa 0,0 l/m 23,5 km/h (4 Bft) NW 315 0 min 0 W/m 8,2 C 7,6 C 23,5 km/h (4 Bft)
08.10.2012 13:15 14,4 C 64 % 1016,5 hPa 0,0 l/m 29,3 km/h (5 Bft) NW 305 0 min 0 W/m 7,7 C 7,0 C 29,3 km/h (5 Bft)
08.10.2012 13:30 14,5 C 62 % 1016,5 hPa 0,0 l/m 29,3 km/h (5 Bft) NW 305 0 min 0 W/m 7,3 C 7,1 C 29,3 km/h (5 Bft)
08.10.2012 13:45 14,6 C 61 % 1016,5 hPa 0,0 l/m 26,6 km/h (4 Bft) W-NW 295 0 min 0 W/m 7,2 C 7,7 C 26,6 km/h (4 Bft)
08.10.2012 14:00 14,6 C 65 % 1016,5 hPa 0,0 l/m 20,3 km/h (4 Bft) NW 305 0 min 0 W/m 8,1 C 9,2 C 20,3 km/h (4 Bft)
08.10.2012 14:15 14,6 C 66 % 1016,5 hPa 0,0 l/m 26,2 km/h (4 Bft) W-NW 290 0 min 0 W/m 8,3 C 7,8 C 26,2 km/h (4 Bft)
08.10.2012 14:30 14,9 C 66 % 1016,5 hPa 0,0 l/m 24,9 km/h (4 Bft) NW 305 0 min 0 W/m 8,6 C 8,5 C 24,9 km/h (4 Bft)
08.10.2012 14:45 15,0 C 65 % 1016,5 hPa 0,0 l/m 21,3 km/h (4 Bft) W-NW 300 0 min 0 W/m 8,5 C 9,4 C 21,3 km/h (4 Bft)
08.10.2012 15:00 15,0 C 64 % 1016,5 hPa 0,0 l/m 21,3 km/h (4 Bft) W-NW 300 0 min 0 W/m 8,2 C 9,4 C 21,3 km/h (4 Bft)
08.10.2012 15:15 14,9 C 65 % 1016,5 hPa 0,0 l/m 26,0 km/h (4 Bft) W-NW 285 0 min 0 W/m 8,4 C 8,3 C 26,0 km/h (4 Bft)
08.10.2012 15:30 14,8 C 65 % 1015,5 hPa 0,0 l/m 18,5 km/h (3 Bft) NW 305 0 min 0 W/m 8,3 C 9,9 C 18,5 km/h (3 Bft)
08.10.2012 15:45 14,8 C 65 % 1015,5 hPa 0,0 l/m 22,1 km/h (4 Bft) NW 315 0 min 0 W/m 8,3 C 9,0 C 22,1 km/h (4 Bft)
08.10.2012 16:00 14,1 C 65 % 1015,5 hPa 0,0 l/m 22,6 km/h (4 Bft) NW 320 0 min 0 W/m 7,6 C 7,9 C 22,6 km/h (4 Bft)
08.10.2012 16:15 13,7 C 67 % 1015,5 hPa 0,0 l/m 14,6 km/h (3 Bft) W-NW 300 0 min 0 W/m 7,7 C 9,8 C 14,6 km/h (3 Bft)
08.10.2012 16:30 13,6 C 68 % 1014,5 hPa 0,0 l/m 12,3 km/h (2 Bft) W-NW 300 0 min 0 W/m 7,8 C 10,5 C 12,3 km/h (2 Bft)
08.10.2012 16:45 13,4 C 68 % 1014,5 hPa 0,0 l/m 15,0 km/h (3 Bft) W-NW 290 0 min 0 W/m 7,6 C 9,3 C 15,0 km/h (3 Bft)
08.10.2012 17:00 13,2 C 68 % 1014,5 hPa 0,0 l/m 18,3 km/h (3 Bft) NW 315 0 min 0 W/m 7,4 C 7,9 C 18,3 km/h (3 Bft)
08.10.2012 17:15 12,8 C 69 % 1013,5 hPa 0,0 l/m 17,5 km/h (3 Bft) W-NW 290 0 min 0 W/m 7,3 C 7,7 C 17,5 km/h (3 Bft)
08.10.2012 17:30 12,5 C 69 % 1013,5 hPa 0,0 l/m 13,9 km/h (3 Bft) W-NW 285 0 min 0 W/m 7,0 C 8,6 C 13,9 km/h (3 Bft)
08.10.2012 17:45 12,4 C 69 % 1013,5 hPa 0,0 l/m 13,4 km/h (3 Bft) W 275 0 min 0 W/m 6,9 C 8,7 C 13,4 km/h (3 Bft)
08.10.2012 17:59 12,2 C 70 % 1013,5 hPa 0,0 l/m 12,3 km/h (2 Bft) W 260 0 min 0 W/m 6,9 C 8,9 C 12,3 km/h (2 Bft)
08.10.2012 18:15 11,9 C 70 % 1013,5 hPa 0,0 l/m 17,6 km/h (3 Bft) W 275 0 min 0 W/m 6,6 C 6,5 C 17,6 km/h (3 Bft)
08.10.2012 18:30 11,8 C 71 % 1013,5 hPa 0,0 l/m 15,9 km/h (3 Bft) W 275 0 min 0 W/m 6,7 C 7,0 C 15,9 km/h (3 Bft)
08.10.2012 18:44 11,6 C 72 % 1013,5 hPa 0,0 l/m 15,0 km/h (3 Bft) W 275 0 min 0 W/m 6,7 C 7,1 C 15,0 km/h (3 Bft)
08.10.2012 19:00 11,4 C 72 % 1013,5 hPa 0,0 l/m 14,3 km/h (3 Bft) W 275 0 min 0 W/m 6,5 C 7,1 C 14,3 km/h (3 Bft)
08.10.2012 19:15 11,2 C 71 % 1013,5 hPa 0,0 l/m 10,5 km/h (2 Bft) W 275 0 min 0 W/m 6,1 C 8,7 C 10,5 km/h (2 Bft)
08.10.2012 19:29 11,0 C 72 % 1013,5 hPa 0,0 l/m 10,3 km/h (2 Bft) W 275 0 min 0 W/m 6,2 C 8,5 C 10,3 km/h (2 Bft)
08.10.2012 19:45 10,9 C 73 % 1012,5 hPa 0,0 l/m 10,5 km/h (2 Bft) W-SW 255 0 min 0 W/m 6,3 C 8,3 C 10,5 km/h (2 Bft)
08.10.2012 20:00 10,7 C 73 % 1012,5 hPa 0,0 l/m 8,0 km/h (2 Bft) W-SW 255 0 min 0 W/m 6,1 C 9,6 C 8,0 km/h (2 Bft)
08.10.2012 20:14 10,5 C 73 % 1012,5 hPa 0,0 l/m 5,9 km/h (2 Bft) W-SW 250 0 min 0 W/m 5,9 C 10,5 C 5,9 km/h (2 Bft)
08.10.2012 20:30 10,2 C 74 % 1012,5 hPa 0,0 l/m 6,1 km/h (2 Bft) W-SW 250 0 min 0 W/m 5,8 C 10,2 C 6,1 km/h (2 Bft)
08.10.2012 20:45 10,1 C 75 % 1012,5 hPa 0,0 l/m 7,0 km/h (2 Bft) W-SW 250 0 min 0 W/m 5,9 C 9,7 C 7,0 km/h (2 Bft)
08.10.2012 21:00 10,1 C 76 % 1011,5 hPa 0,0 l/m 7,9 km/h (2 Bft) W-SW 255 0 min 0 W/m 6,1 C 9,0 C 7,9 km/h (2 Bft)
08.10.2012 21:15 10,0 C 76 % 1011,5 hPa 0,0 l/m 8,6 km/h (2 Bft) W 260 0 min 0 W/m 6,0 C 8,5 C 8,6 km/h (2 Bft)
08.10.2012 21:30 9,9 C 77 % 1011,5 hPa 0,0 l/m 11,5 km/h (2 Bft) W-SW 245 0 min 0 W/m 6,1 C 6,7 C 11,5 km/h (2 Bft)
08.10.2012 21:45 9,9 C 78 % 1011,5 hPa 0,0 l/m 15,3 km/h (3 Bft) W 265 0 min 0 W/m 6,2 C 4,9 C 15,3 km/h (3 Bft)
08.10.2012 22:00 10,0 C 79 % 1011,5 hPa 0,0 l/m 19,0 km/h (3 Bft) W 270 0 min 0 W/m 6,5 C 3,6 C 19,0 km/h (3 Bft)
08.10.2012 22:15 10,0 C 79 % 1010,5 hPa 0,0 l/m 21,6 km/h (4 Bft) W 265 0 min 0 W/m 6,5 C 2,8 C 21,6 km/h (4 Bft)
08.10.2012 22:30 10,0 C 79 % 1010,5 hPa 0,0 l/m 24,6 km/h (4 Bft) W 270 0 min 0 W/m 6,5 C 1,9 C 24,6 km/h (4 Bft)
08.10.2012 22:45 9,9 C 79 % 1010,5 hPa 0,0 l/m 21,8 km/h (4 Bft) W 270 0 min 0 W/m 6,4 C 2,6 C 21,8 km/h (4 Bft)
08.10.2012 23:00 9,9 C 79 % 1010,5 hPa 0,0 l/m 21,3 km/h (4 Bft) W 265 0 min 0 W/m 6,4 C 2,7 C 21,3 km/h (4 Bft)
08.10.2012 23:15 9,9 C 79 % 1010,5 hPa 0,0 l/m 23,6 km/h (4 Bft) W 270 0 min 0 W/m 6,4 C 2,1 C 23,6 km/h (4 Bft)
08.10.2012 23:30 9,8 C 80 % 1010,5 hPa 0,0 l/m 22,7 km/h (4 Bft) W 270 0 min 0 W/m 6,5 C 2,2 C 22,7 km/h (4 Bft)
08.10.2012 23:45 9,9 C 80 % 1009,5 hPa 0,0 l/m 19,6 km/h (3 Bft) W 270 0 min 0 W/m 6,6 C 3,3 C 19,6 km/h (3 Bft)
_ Min-Zeit 23:30 13:45 23:45 - 20:14 - - - - 20:30 22:30 20:14
Minimum _ 9,8 C 61 % 1009,5 hPa - 5,9 km/h (2 Bft) - - - - 5,8 C 1,9 C 5,9 km/h (2 Bft)
_ Max-Zeit 14:45 10:30 00:00 00:00 04:30 - - 00:00 00:00 12:14 16:30 04:30
Maximum _ 15,0 C 82 % 1018,5 hPa 0,0 l/m 30,4 km/h
N (5 Bft)
- - 0 min 0 W/m 9,7 C 10,5 C 30,4 km/h
N (5 Bft)
Durchschnitt _ 12,0 C 73 % 1016,0 hPa #0,0 l/m 18,6 km/h (3 Bft) NW - #0 min. 0 W/m 7,3 C 6,6 C 18,6 km/h (3 Bft)
copyright by Holger Just